Time;durP1;ratioP1;P1;durP2;ratioP2;P2;SDS_P1;SDS_P2;PMS_P1;PMS_P2;Temp;Humidity;BMP_temperature;BMP_pressure;BME280_temperature;BME280_humidity;BME280_pressure;Samples;Min_cycle;Max_cycle;Signal;HPM_P1;HPM_P2
2022/11/16 11:14:37;;;;;;;20.00;4.63;;;;;;;0.42;52.20;99371.25;4914423;28;20114;-70
2022/11/16 11:17:11;;;;;;;8.18;4.57;;;;;;;0.36;52.46;99370.53;4919285;28;20055;-66
2022/11/16 11:19:36;;;;;;;;;;;;;;;0.38;53.20;99372.25;4919763;28;20406;-65
2022/11/16 11:22:01;;;;;;;;;;;;;;;0.31;53.36;99374.25;4873498;29;20009;-64
2022/11/16 11:24:29;;;;;;;6.80;4.28;;;;;;;0.15;53.13;99376.53;4918352;28;20021;-65
2022/11/16 11:26:59;;;;;;;7.43;5.43;;;;;;;0.03;54.02;99369.06;4890364;29;20051;-69
2022/11/16 11:29:49;;;;;;;7.43;4.45;;;;;;;-0.06;53.39;99370.22;4917635;28;20537;-64
2022/11/16 11:32:16;;;;;;;7.13;4.75;;;;;;;-0.26;54.00;99374.41;4902210;29;20480;-66
2022/11/16 11:34:44;;;;;;;6.10;3.97;;;;;;;-0.39;54.16;99371.31;4919037;28;20103;-65
2022/11/16 11:37:26;;;;;;;7.13;4.32;;;;;;;-0.38;53.06;99383.50;4919247;28;20057;-66
2022/11/16 11:40:05;;;;;;;8.15;4.40;;;;;;;-0.51;53.90;99379.56;4915200;29;20058;-65
2022/11/16 11:42:30;;;;;;;7.25;4.35;;;;;;;-0.72;54.24;99386.31;4911186;29;20050;-65
2022/11/16 11:44:58;;;;;;;5.90;4.05;;;;;;;-0.71;54.37;99384.53;4911592;29;20047;-65
2022/11/16 11:48:01;;;;;;;10.35;4.60;;;;;;;-0.63;54.12;99380.78;4901737;29;20051;-67
2022/11/16 11:50:51;;;;;;;5.22;3.80;;;;;;;-0.58;53.92;99381.50;4915441;29;20502;-65
2022/11/16 11:53:31;;;;;;;8.70;4.80;;;;;;;-0.50;54.57;99392.59;4918995;28;20129;-67
2022/11/16 11:55:59;;;;;;;8.60;4.22;;;;;;;-0.49;54.01;99396.06;4917491;29;20097;-67
2022/11/16 11:58:31;;;;;;;6.60;4.38;;;;;;;-0.52;54.43;99383.06;4892302;29;20057;-66
2022/11/16 12:01:47;;;;;;;7.97;4.20;;;;;;;-0.43;54.57;99388.03;4884453;28;20047;-65
2022/11/16 12:04:30;;;;;;;8.02;4.88;;;;;;;-0.47;54.37;99381.19;4851474;29;20802;-66
2022/11/16 12:07:06;;;;;;;7.60;5.10;;;;;;;-0.59;54.40;99377.19;4874937;29;20051;-66
2022/11/16 12:09:40;;;;;;;6.65;4.15;;;;;;;-0.64;54.68;99386.91;4872350;29;20050;-64
2022/11/16 12:12:10;;;;;;;7.60;3.83;;;;;;;-0.65;54.97;99384.34;4872380;29;20036;-66
2022/11/16 12:14:44;;;;;;;8.40;5.20;;;;;;;-0.66;55.26;99373.03;4868298;29;20052;-68
2022/11/16 12:17:36;;;;;;;10.02;4.75;;;;;;;-0.56;55.19;99371.81;4872953;29;20050;-66
2022/11/16 12:20:19;;;;;;;11.93;4.03;;;;;;;-0.51;55.43;99372.56;4876730;29;20115;-67
2022/11/16 12:22:59;;;;;;;9.18;4.90;;;;;;;-0.50;55.21;99363.81;4850895;29;20087;-68
2022/11/16 12:26:01;;;;;;;5.38;3.85;;;;;;;-0.45;55.31;99355.78;4861484;29;20483;-67
2022/11/16 12:28:32;;;;;;;11.20;4.57;;;;;;;-0.37;54.80;99359.91;4873701;29;20040;-66
2022/11/16 12:31:26;;;;;;;10.70;5.18;;;;;;;-0.47;55.04;99362.84;4859233;29;20080;-66
2022/11/16 12:34:16;;;;;;;7.32;3.90;;;;;;;-0.58;54.82;99367.56;4883675;29;20536;-67
2022/11/16 12:37:08;;;;;;;11.57;4.95;;;;;;;-0.62;55.22;99351.09;4794736;29;20046;-66
2022/11/16 12:39:53;;;;;;;5.72;4.30;;;;;;;-0.71;55.45;99361.00;4828711;29;20049;-66
2022/11/16 12:42:35;;;;;;;13.02;5.05;;;;;;;-0.68;55.80;99350.44;4845243;29;20057;-68
2022/11/16 12:45:26;;;;;;;4.78;3.70;;;;;;;-0.67;55.78;99352.13;4843063;29;20036;-66
2022/11/16 12:47:54;;;;;;;6.15;4.38;;;;;;;-0.70;55.32;99358.34;4824537;29;20209;-72
2022/11/16 12:50:37;;;;;;;8.57;4.20;;;;;;;-0.67;54.71;99358.22;4841531;29;20128;-72
2022/11/16 12:53:25;;;;;;;6.28;3.58;;;;;;;-0.72;54.76;99352.28;4841260;29;20041;-76
2022/11/16 12:56:31;;;;;;;4.82;3.28;;;;;;;-0.73;55.35;99355.78;4841443;29;20634;-73
2022/11/16 12:59:05;;;;;;;5.30;3.85;;;;;;;-0.86;55.31;99357.94;4827204;29;20041;-74
2022/11/16 13:01:42;;;;;;;6.75;3.65;;;;;;;-0.92;54.98;99352.03;4845725;29;20057;-75
2022/11/16 13:04:14;;;;;;;11.00;4.70;;;;;;;-1.06;55.36;99356.81;4847978;29;20045;-77
2022/11/16 13:06:44;;;;;;;19.27;4.55;;;;;;;-1.18;55.62;99361.47;4848379;29;20056;-72
2022/11/16 13:09:29;;;;;;;5.05;3.88;;;;;;;-1.21;55.83;99361.56;4846833;29;20040;-73
2022/11/16 13:11:58;;;;;;;10.13;3.65;;;;;;;-1.31;56.29;99360.13;4844965;29;20044;-67
2022/11/16 13:14:37;;;;;;;6.57;3.72;;;;;;;-1.34;56.44;99362.81;4885209;29;20054;-69
2022/11/16 13:17:04;;;;;;;5.60;4.03;;;;;;;-1.42;56.21;99364.78;4892290;29;20047;-67
2022/11/16 13:19:29;;;;;;;10.88;4.68;;;;;;;-1.50;56.34;99359.78;4901323;29;20050;-70
2022/11/16 13:22:12;;;;;;;16.30;3.78;;;;;;;-1.51;56.65;99365.91;4902232;29;20051;-69
2022/11/16 13:24:48;;;;;;;5.95;3.50;;;;;;;-1.56;56.78;99364.28;4892636;29;20051;-67
2022/11/16 13:27:30;;;;;;;7.82;4.22;;;;;;;-1.62;56.90;99370.56;4922281;28;20047;-69
2022/11/16 13:30:10;;;;;;;8.00;4.38;;;;;;;-1.68;57.04;99372.47;4922026;28;20156;-68
2022/11/16 13:32:44;;;;;;;5.55;3.30;;;;;;;-1.72;57.08;99384.78;4888627;29;20054;-70
2022/11/16 13:35:14;;;;;;;7.90;4.05;;;;;;;-1.75;57.08;99383.97;4908124;28;20027;-71
2022/11/16 13:37:40;;;;;;;6.40;3.92;;;;;;;-1.78;57.12;99376.22;4914335;29;20110;-67
2022/11/16 13:40:05;;;;;;;5.72;3.85;;;;;;;-1.79;56.93;99377.09;4905447;29;20150;-72
2022/11/16 13:42:40;;;;;;;7.13;3.50;;;;;;;-1.79;56.79;99377.09;4896033;29;20083;-71
2022/11/16 13:45:19;;;;;;;6.35;3.80;;;;;;;-1.77;57.15;99384.00;4900182;29;20050;-68
2022/11/16 13:47:55;;;;;;;5.90;4.00;;;;;;;-1.79;57.22;99382.34;4915003;29;20055;-68
2022/11/16 13:50:26;;;;;;;6.32;3.70;;;;;;;-1.80;57.12;99378.00;4917564;29;20113;-68
2022/11/16 13:52:59;;;;;;;8.93;4.32;;;;;;;-1.78;57.09;99378.81;4914615;29;20498;-69
2022/11/16 13:55:28;;;;;;;6.93;3.85;;;;;;;-1.73;57.63;99388.28;4914185;29;20043;-70
2022/11/16 13:57:56;;;;;;;6.82;3.60;;;;;;;-1.69;56.80;99396.91;4915997;29;20110;-68
2022/11/16 14:00:27;;;;;;;5.97;3.85;;;;;;;-1.56;55.79;99383.44;4916668;29;20130;-68
2022/11/16 14:03:16;;;;;;;4.85;3.25;;;;;;;-1.61;56.23;99392.31;4917014;29;20047;-68
2022/11/16 14:05:49;;;;;;;7.78;4.30;;;;;;;-1.64;56.17;99384.56;4900144;29;20043;-69
2022/11/16 14:08:17;;;;;;;7.97;3.72;;;;;;;-1.65;56.37;99390.69;4899983;29;20042;-68
2022/11/16 14:10:48;;;;;;;5.85;3.40;;;;;;;-1.62;56.55;99398.44;4897685;29;20098;-70
2022/11/16 14:13:29;;;;;;;5.78;3.50;;;;;;;-1.58;56.34;99393.09;4910094;29;20485;-69
2022/11/16 14:16:18;;;;;;;7.07;3.97;;;;;;;-1.58;56.55;99398.31;4880563;29;20047;-70
2022/11/16 14:18:45;;;;;;;7.90;3.92;;;;;;;-1.62;56.05;99390.59;4897675;29;20047;-68
2022/11/16 14:21:19;;;;;;;9.02;4.35;;;;;;;-1.66;56.51;99388.97;4898002;29;20051;-69
2022/11/16 14:24:08;;;;;;;10.98;4.18;;;;;;;-1.73;56.47;99397.88;4901428;29;20130;-69
2022/11/16 14:26:45;;;;;;;6.38;3.90;;;;;;;-1.73;56.59;99395.25;4898876;29;20050;-69
2022/11/16 14:29:40;;;;;;;5.53;4.15;;;;;;;-1.79;56.78;99405.84;4898073;29;20513;-69
2022/11/16 14:32:16;;;;;;;6.72;4.05;;;;;;;-1.85;57.17;99397.28;4901982;29;20051;-68
2022/11/16 14:34:43;;;;;;;10.23;5.03;;;;;;;-1.91;57.30;99412.25;4899613;28;20043;-69
2022/11/16 14:37:36;;;;;;;7.07;4.45;;;;;;;-1.81;57.39;99405.06;4900633;29;20094;-69
2022/11/16 14:40:27;;;;;;;10.15;5.90;;;;;;;-1.88;57.36;99401.72;4904650;29;20087;-68
2022/11/16 14:43:03;;;;;;;9.43;4.70;;;;;;;-2.02;57.32;99409.03;4880453;29;20047;-68
2022/11/16 14:45:31;;;;;;;7.50;5.00;;;;;;;-2.10;57.93;99411.84;4901169;29;20089;-68
2022/11/16 14:48:02;;;;;;;6.20;4.25;;;;;;;-2.11;58.03;99411.88;4907748;29;20051;-68
2022/11/16 14:50:29;;;;;;;8.18;4.38;;;;;;;-2.16;57.85;99412.00;4891396;29;20051;-68
2022/11/16 14:52:58;;;;;;;9.63;4.10;;;;;;;-2.15;58.12;99415.47;4910937;29;20043;-70
2022/11/16 14:55:25;;;;;;;9.40;4.50;;;;;;;-2.16;58.30;99416.38;4913848;29;20186;-68
2022/11/16 14:58:08;;;;;;;6.90;4.68;;;;;;;-2.13;58.47;99430.19;4895552;29;20074;-68
2022/11/16 15:00:34;;;;;;;6.72;4.60;;;;;;;-2.16;58.53;99421.59;4907623;29;20039;-69
2022/11/16 15:03:01;;;;;;;6.40;4.65;;;;;;;-2.17;58.28;99423.34;4904458;29;20415;-67
2022/11/16 15:05:31;;;;;;;5.53;4.00;;;;;;;-2.13;57.87;99422.34;4902219;29;20520;-69
2022/11/16 15:07:58;;;;;;;7.97;4.72;;;;;;;-2.16;58.32;99413.75;4899633;29;20046;-68
2022/11/16 15:10:26;;;;;;;9.40;5.55;;;;;;;-2.17;58.37;99412.03;4901401;29;20855;-69
2022/11/16 15:12:53;;;;;;;6.53;4.13;;;;;;;-2.16;58.55;99403.31;4902812;29;20043;-69
2022/11/16 15:15:26;;;;;;;10.93;4.90;;;;;;;-2.15;58.36;99415.47;4902631;29;20525;-68
2022/11/16 15:18:06;;;;;;;10.68;4.85;;;;;;;-2.05;57.79;99406.53;4887479;29;20043;-68
2022/11/16 15:20:33;;;;;;;10.68;5.22;;;;;;;-2.13;57.82;99408.44;4904732;29;20414;-67
2022/11/16 15:22:59;;;;;;;7.32;4.60;;;;;;;-2.17;58.12;99409.44;4903084;29;20044;-69
2022/11/16 15:25:32;;;;;;;9.15;5.18;;;;;;;-2.18;58.38;99415.53;4900384;29;20046;-68
2022/11/16 15:27:59;;;;;;;9.57;4.53;;;;;;;-2.17;58.15;99417.25;4901395;29;20051;-67
2022/11/16 15:30:28;;;;;;;7.85;4.78;;;;;;;-2.22;58.08;99414.75;4899289;29;20047;-66
2022/11/16 15:32:53;;;;;;;5.38;4.05;;;;;;;-2.27;57.93;99411.41;4886289;29;20047;-68
2022/11/16 15:35:29;;;;;;;12.82;5.20;;;;;;;-2.25;57.99;99405.22;4892531;29;20042;-68
2022/11/16 15:38:13;;;;;;;10.82;5.38;;;;;;;-2.26;58.17;99402.69;4904002;28;20039;-68
2022/11/16 15:40:40;;;;;;;10.25;5.35;;;;;;;-2.34;58.23;99410.66;4898786;29;20470;-69
2022/11/16 15:43:06;;;;;;;6.25;3.80;;;;;;;-2.35;58.30;99406.34;4899123;29;20048;-67
2022/11/16 15:45:32;;;;;;;12.05;4.50;;;;;;;-2.34;58.24;99413.28;4904199;29;20085;-65
2022/11/16 15:48:03;;;;;;;7.45;4.35;;;;;;;-2.34;57.97;99407.19;4899115;29;20415;-66
2022/11/16 15:50:29;;;;;;;6.22;4.10;;;;;;;-2.35;58.45;99398.50;4900227;29;20510;-68
2022/11/16 15:52:55;;;;;;;7.20;4.35;;;;;;;-2.36;58.33;99407.22;4884355;29;20454;-67
2022/11/16 15:55:32;;;;;;;7.32;4.53;;;;;;;-2.33;58.48;99406.31;4904612;29;20043;-71
2022/11/16 15:58:16;;;;;;;8.75;4.00;;;;;;;-2.33;58.53;99404.56;4901796;29;20035;-69
2022/11/16 16:00:47;;;;;;;7.60;4.28;;;;;;;-2.35;58.50;99400.25;4902447;29;20517;-68
2022/11/16 16:03:18;;;;;;;9.85;4.88;;;;;;;-2.35;58.10;99403.72;4901888;29;20577;-67
2022/11/16 16:05:44;;;;;;;9.07;4.57;;;;;;;-2.40;58.51;99404.75;4899432;29;20102;-68
2022/11/16 16:09:02;;;;;;;6.40;4.00;;;;;;;-2.34;58.73;99395.00;4901135;29;20525;-68
2022/11/16 16:11:27;;;;;;;7.03;3.50;;;;;;;-2.41;58.76;99393.44;4840523;29;20053;-68
2022/11/16 16:13:58;;;;;;;7.93;3.92;;;;;;;-2.40;59.05;99399.53;4846363;29;20564;-67
2022/11/16 16:16:35;;;;;;;6.72;4.28;;;;;;;-2.39;59.56;99398.63;4856889;29;20144;-67
2022/11/16 16:19:23;;;;;;;9.88;4.70;;;;;;;-2.43;58.96;99410.88;4842123;29;20076;-68
2022/11/16 16:21:49;;;;;;;10.80;4.78;;;;;;;-2.46;59.31;99397.03;4842861;29;20048;-67
2022/11/16 16:24:47;;;;;;;7.57;4.05;;;;;;;-2.41;59.61;99395.19;4858090;29;20261;-67
2022/11/16 16:27:18;;;;;;;7.40;4.53;;;;;;;-2.47;59.98;99395.31;4820752;29;20077;-67
2022/11/16 16:29:49;;;;;;;9.98;4.47;;;;;;;-2.50;60.12;99395.41;4839899;29;20516;-68
2022/11/16 16:32:21;;;;;;;10.13;4.97;;;;;;;-2.50;60.55;99387.59;4824353;29;20583;-68
2022/11/16 16:34:47;;;;;;;9.25;6.18;;;;;;;-2.55;60.95;99385.06;4804355;29;20048;-67
2022/11/16 16:37:13;;;;;;;14.38;5.40;;;;;;;-2.56;60.43;99399.00;4808851;29;20083;-67
2022/11/16 16:39:40;;;;;;;8.48;5.20;;;;;;;-2.56;61.28;99399.00;4824417;29;20053;-67
2022/11/16 16:42:10;;;;;;;8.85;4.90;;;;;;;-2.54;61.73;99399.84;4825046;29;20053;-73
2022/11/16 16:44:37;;;;;;;7.13;4.50;;;;;;;-2.58;61.37;99401.63;4802425;29;20052;-69
2022/11/16 16:47:03;;;;;;;8.63;5.47;;;;;;;-2.58;61.47;99395.56;4866095;29;20064;-69
2022/11/16 16:49:29;;;;;;;11.52;5.10;;;;;;;-2.60;61.64;99384.31;4860387;29;20527;-67
2022/11/16 16:51:55;;;;;;;13.32;5.85;;;;;;;-2.61;61.73;99390.44;4875086;29;20048;-68
2022/11/16 16:54:21;;;;;;;10.02;5.57;;;;;;;-2.62;61.98;99386.97;4858798;29;20043;-69
2022/11/16 16:56:47;;;;;;;9.75;5.70;;;;;;;-2.62;61.88;99397.41;4855434;29;20864;-68
2022/11/16 16:59:13;;;;;;;12.95;5.15;;;;;;;-2.63;62.08;99390.47;4860612;29;20059;-68
2022/11/16 17:01:40;;;;;;;13.82;6.03;;;;;;;-2.65;62.08;99387.03;4864360;29;20188;-69
2022/11/16 17:04:08;;;;;;;10.10;5.90;;;;;;;-2.65;62.10;99389.63;4900350;29;20047;-67
2022/11/16 17:06:35;;;;;;;9.30;5.53;;;;;;;-2.64;62.35;99390.50;4903111;29;20035;-67
2022/11/16 17:09:01;;;;;;;10.55;5.10;;;;;;;-2.65;62.26;99383.56;4907944;28;20035;-68
2022/11/16 17:11:28;;;;;;;13.93;6.13;;;;;;;-2.64;62.44;99383.53;4900417;29;20512;-68
2022/11/16 17:13:55;;;;;;;9.65;5.38;;;;;;;-2.67;62.99;99385.34;4912643;28;20065;-67
2022/11/16 17:16:23;;;;;;;8.93;6.13;;;;;;;-2.66;63.09;99384.44;4917074;28;20513;-67
2022/11/16 17:18:56;;;;;;;13.07;7.38;;;;;;;-2.65;63.10;99380.94;4900156;28;20046;-68
2022/11/16 17:21:21;;;;;;;11.02;6.28;;;;;;;-2.71;63.52;99371.50;4917483;28;20557;-68
2022/11/16 17:23:48;;;;;;;13.30;7.40;;;;;;;-2.73;63.73;99369.84;4886892;29;20475;-67
2022/11/16 17:26:14;;;;;;;16.02;8.00;;;;;;;-2.75;63.67;99387.25;4903529;28;20043;-69
2022/11/16 17:28:40;;;;;;;13.05;7.35;;;;;;;-2.78;63.83;99372.53;4899366;29;20042;-70
2022/11/16 17:31:09;;;;;;;14.95;6.65;;;;;;;-2.78;64.42;99382.97;4867966;29;20067;-68
2022/11/16 17:33:40;;;;;;;14.60;7.97;;;;;;;-2.80;64.42;99374.31;4909979;28;20509;-68
2022/11/16 17:36:09;;;;;;;17.00;7.55;;;;;;;-2.85;64.23;99376.19;4897265;29;20138;-70
2022/11/16 17:38:36;;;;;;;14.40;7.22;;;;;;;-2.88;64.56;99375.38;4904143;28;20047;-69
2022/11/16 17:41:07;;;;;;;26.70;7.63;;;;;;;-2.89;64.92;99373.66;4916984;28;20101;-68
2022/11/16 17:43:35;;;;;;;14.60;8.20;;;;;;;-2.96;65.10;99371.19;4899575;29;20050;-69
2022/11/16 17:46:09;;;;;;;15.93;9.13;;;;;;;-2.97;65.26;99369.47;4899492;29;20130;-71
2022/11/16 17:48:37;;;;;;;16.38;8.98;;;;;;;-3.03;65.54;99372.19;4896534;29;20032;-75
2022/11/16 17:51:04;;;;;;;18.00;8.40;;;;;;;-3.05;65.46;99373.16;4912033;28;20051;-68
2022/11/16 17:53:33;;;;;;;16.63;8.88;;;;;;;-3.04;66.02;99367.00;4900083;29;20454;-68
2022/11/16 17:56:01;;;;;;;18.73;9.85;;;;;;;-3.06;66.05;99368.81;4916833;28;20046;-70
2022/11/16 17:58:28;;;;;;;23.33;8.88;;;;;;;-3.04;65.88;99361.78;4881164;29;20059;-67
2022/11/16 18:00:58;;;;;;;17.05;10.65;;;;;;;-3.04;66.11;99365.25;4917975;28;20058;-67
2022/11/16 18:03:27;;;;;;;20.90;10.70;;;;;;;-2.98;66.06;99349.50;4920629;28;20047;-67
2022/11/16 18:06:10;;;;;;;21.15;10.55;;;;;;;-2.87;65.87;99356.22;4920772;28;20042;-68
2022/11/16 18:08:40;;;;;;;16.50;9.13;;;;;;;-2.85;65.92;99359.66;4903837;29;20046;-67
2022/11/16 18:11:13;;;;;;;22.15;11.02;;;;;;;-2.81;65.58;99356.06;4887630;29;20043;-67
2022/11/16 18:13:39;;;;;;;19.73;10.27;;;;;;;-2.81;65.48;99356.94;4920846;28;20051;-66
2022/11/16 18:16:14;;;;;;;23.55;10.52;;;;;;;-2.76;65.89;99354.25;4872473;29;20395;-67
2022/11/16 18:18:43;;;;;;;20.25;10.45;;;;;;;-2.79;65.63;99344.72;4875617;29;20044;-67
2022/11/16 18:21:14;;;;;;;23.42;9.50;;;;;;;-2.75;65.46;99356.81;4898032;29;20047;-67
2022/11/16 18:23:41;;;;;;;17.00;9.00;;;;;;;-2.76;64.98;99347.28;4901756;29;20098;-68
2022/11/16 18:26:08;;;;;;;19.45;10.55;;;;;;;-2.78;65.17;99349.06;4868741;29;20119;-67
2022/11/16 18:28:35;;;;;;;15.73;11.20;;;;;;;-2.77;65.32;99352.53;4901809;29;20048;-68
2022/11/16 18:31:10;;;;;;;20.85;10.27;;;;;;;-2.79;65.46;99343.88;4884699;29;20047;-67
2022/11/16 18:33:37;;;;;;;20.30;10.52;;;;;;;-2.80;65.58;99347.38;4877536;29;20628;-68
2022/11/16 18:36:05;;;;;;;15.75;8.70;;;;;;;-2.80;65.66;99343.00;4895566;29;20039;-68
2022/11/16 18:38:32;;;;;;;18.92;10.35;;;;;;;-2.81;65.92;99330.84;4871078;29;20138;-68
2022/11/16 18:41:06;;;;;;;21.48;11.32;;;;;;;-2.79;65.82;99336.03;4868391;29;20074;-67
2022/11/16 18:43:33;;;;;;;14.15;9.15;;;;;;;-2.83;66.08;99329.19;4884511;29;20134;-69
2022/11/16 18:46:00;;;;;;;25.40;10.73;;;;;;;-2.85;65.83;99331.84;4881353;29;20040;-68
2022/11/16 18:48:28;;;;;;;18.02;9.38;;;;;;;-2.88;66.24;99331.03;4878933;29;20051;-67
2022/11/16 18:51:02;;;;;;;14.32;9.45;;;;;;;-2.88;65.96;99329.28;4891692;29;20577;-68
2022/11/16 18:53:31;;;;;;;19.67;10.07;;;;;;;-2.93;66.00;99326.78;4901048;29;20426;-70
2022/11/16 18:55:58;;;;;;;19.60;11.13;;;;;;;-3.00;66.17;99320.00;4868304;29;20127;-66
2022/11/16 18:58:26;;;;;;;15.13;8.65;;;;;;;-3.02;66.10;99326.13;4867923;29;20074;-69
2022/11/16 19:00:53;;;;;;;15.30;9.15;;;;;;;-3.02;66.07;99328.72;4888252;29;20056;-69
2022/11/16 19:03:20;;;;;;;23.85;9.38;;;;;;;-3.04;66.28;99327.91;4880273;29;20055;-68
2022/11/16 19:05:55;;;;;;;15.88;9.30;;;;;;;-3.01;66.30;99322.63;4894889;29;20040;-69
2022/11/16 19:08:22;;;;;;;24.38;9.80;;;;;;;-3.05;66.42;99331.44;4879758;29;20127;-68
2022/11/16 19:10:48;;;;;;;24.23;10.63;;;;;;;-3.05;66.53;99327.03;4880677;29;20044;-69
2022/11/16 19:13:16;;;;;;;15.82;10.07;;;;;;;-3.04;66.56;99327.91;4882187;29;20530;-68
2022/11/16 19:15:42;;;;;;;18.92;10.77;;;;;;;-3.01;66.61;99325.22;4891074;29;20052;-69
2022/11/16 19:18:09;;;;;;;27.92;12.27;;;;;;;-2.94;66.98;99330.31;4882980;29;20051;-74
2022/11/16 19:20:37;;;;;;;24.40;12.30;;;;;;;-2.87;67.16;99324.94;4904514;29;20075;-70
2022/11/16 19:23:03;;;;;;;20.83;9.95;;;;;;;-2.81;66.93;99317.81;4920528;29;20524;-71
2022/11/16 19:25:29;;;;;;;21.50;12.23;;;;;;;-2.72;66.83;99322.84;4873726;29;20163;-71
2022/11/16 19:27:55;;;;;;;22.02;12.43;;;;;;;-2.63;66.83;99325.22;4884566;29;20138;-70
2022/11/16 19:30:20;;;;;;;17.67;10.02;;;;;;;-2.53;66.31;99319.78;4884465;29;20854;-72
2022/11/16 19:32:47;;;;;;;26.25;10.48;;;;;;;-2.48;66.16;99324.00;4863741;29;20074;-71
2022/11/16 19:35:15;;;;;;;24.02;11.35;;;;;;;-2.46;66.39;99316.97;4862552;29;20147;-71
2022/11/16 19:37:42;;;;;;;19.08;10.52;;;;;;;-2.42;66.02;99312.56;4891910;29;20127;-71
2022/11/16 19:40:09;;;;;;;13.95;8.93;;;;;;;-2.39;65.97;99320.31;4891638;29;20044;-71
2022/11/16 19:42:38;;;;;;;21.35;10.35;;;;;;;-2.35;65.87;99314.97;4896841;29;20542;-69
2022/11/16 19:45:04;;;;;;;20.80;9.85;;;;;;;-2.30;65.94;99312.25;4882842;29;20060;-69
2022/11/16 19:47:30;;;;;;;17.65;9.70;;;;;;;-2.27;65.95;99314.81;4865017;29;20043;-72
2022/11/16 19:49:56;;;;;;;22.90;10.00;;;;;;;-2.29;66.04;99312.22;4891008;29;20032;-69
2022/11/16 19:52:22;;;;;;;15.45;8.85;;;;;;;-2.25;65.95;99313.84;4889762;29;20135;-70
2022/11/16 19:54:48;;;;;;;12.02;7.88;;;;;;;-2.22;66.07;99315.53;4884148;29;20062;-69
2022/11/16 19:57:19;;;;;;;20.13;9.68;;;;;;;-2.23;66.18;99316.41;4896995;29;20602;-70
2022/11/16 19:59:48;;;;;;;15.75;8.93;;;;;;;-2.20;66.47;99311.13;4898877;29;20546;-69
2022/11/16 20:02:15;;;;;;;17.30;9.00;;;;;;;-2.23;65.96;99306.84;4913217;28;20489;-68
2022/11/16 20:04:41;;;;;;;16.67;10.13;;;;;;;-2.22;66.08;99310.31;4905722;29;20039;-68
2022/11/16 20:07:12;;;;;;;13.93;9.15;;;;;;;-2.23;66.28;99309.44;4916832;28;20094;-67
2022/11/16 20:09:37;;;;;;;15.15;8.95;;;;;;;-2.26;66.10;99306.06;4902229;29;20129;-66
2022/11/16 20:12:03;;;;;;;14.27;7.32;;;;;;;-2.24;65.85;99306.88;4917233;29;20046;-67
2022/11/16 20:14:29;;;;;;;19.63;8.48;;;;;;;-2.28;65.88;99294.81;4919598;28;20047;-69
2022/11/16 20:16:54;;;;;;;16.33;8.32;;;;;;;-2.34;65.27;99298.41;4889159;28;20182;-69
2022/11/16 20:19:20;;;;;;;19.83;8.27;;;;;;;-2.36;65.52;99297.59;4925502;28;20517;-68
2022/11/16 20:21:46;;;;;;;16.13;8.38;;;;;;;-2.42;65.97;99297.75;4924064;28;20101;-67
2022/11/16 20:24:13;;;;;;;16.73;7.82;;;;;;;-2.42;65.58;99296.91;4889456;29;20046;-68
2022/11/16 20:26:44;;;;;;;15.30;7.65;;;;;;;-2.44;65.89;99299.53;4900664;29;20175;-69
2022/11/16 20:29:14;;;;;;;15.32;7.82;;;;;;;-2.44;66.09;99304.75;4908913;29;20039;-71
2022/11/16 20:31:41;;;;;;;12.82;8.07;;;;;;;-2.46;66.15;99303.06;4902700;29;20438;-72
2022/11/16 20:34:12;;;;;;;13.15;8.02;;;;;;;-2.44;66.30;99301.28;4896957;29;20837;-69
2022/11/16 20:36:44;;;;;;;13.50;7.95;;;;;;;-2.39;66.56;99289.84;4902338;28;20050;-71
2022/11/16 20:39:14;;;;;;;13.85;7.25;;;;;;;-2.37;66.56;99285.44;4902534;29;20059;-70
2022/11/16 20:41:39;;;;;;;13.95;7.68;;;;;;;-2.37;66.48;99288.03;4909964;29;20134;-69
2022/11/16 20:44:04;;;;;;;11.77;7.32;;;;;;;-2.35;66.35;99280.19;4899364;29;20058;-67
2022/11/16 20:46:32;;;;;;;13.90;7.38;;;;;;;-2.33;66.19;99276.63;4901865;29;20066;-68
2022/11/16 20:48:59;;;;;;;14.80;7.80;;;;;;;-2.31;66.23;99280.06;4915437;29;20046;-70
2022/11/16 20:51:24;;;;;;;13.45;8.20;;;;;;;-2.29;66.27;99278.28;4930151;28;20043;-67
2022/11/16 20:53:50;;;;;;;14.73;7.97;;;;;;;-2.23;66.43;99272.88;4913044;29;20478;-67
2022/11/16 20:56:18;;;;;;;13.88;7.93;;;;;;;-2.17;66.34;99271.88;4926078;28;20054;-68
2022/11/16 20:58:42;;;;;;;13.68;7.25;;;;;;;-2.13;66.11;99265.66;4926297;28;20035;-68
2022/11/16 21:01:19;;;;;;;12.23;6.88;;;;;;;-2.01;66.14;99275.78;4908937;29;20137;-68
2022/11/16 21:03:44;;;;;;;12.50;7.88;;;;;;;-2.01;65.89;99273.19;4913503;28;20051;-67
2022/11/16 21:06:10;;;;;;;13.25;7.88;;;;;;;-1.97;65.92;99272.22;4918501;28;20450;-67
2022/11/16 21:08:37;;;;;;;13.82;7.80;;;;;;;-1.92;65.71;99277.31;4918544;28;20051;-68
2022/11/16 21:11:08;;;;;;;15.52;8.40;;;;;;;-1.86;65.64;99278.00;4883500;29;20051;-67
2022/11/16 21:16:17;;;;;;;18.48;8.73;;;;;;;-1.84;65.47;99265.75;4905133;28;20139;-67
2022/11/16 21:18:41;;;;;;;15.63;8.30;;;;;;;-1.83;65.23;99270.09;4902356;29;20162;-70
2022/11/16 21:21:11;;;;;;;12.07;7.40;;;;;;;-1.85;65.10;99277.09;4905048;28;20139;-68
2022/11/16 21:23:35;;;;;;;18.00;7.20;;;;;;;-1.90;64.62;99268.53;4907824;28;20588;-67
2022/11/16 21:26:04;;;;;;;11.77;6.60;;;;;;;-1.94;64.15;99266.91;4900038;28;20491;-68
2022/11/16 21:28:29;;;;;;;13.07;6.90;;;;;;;-1.99;64.25;99266.16;4885430;29;20577;-69
2022/11/16 21:30:58;;;;;;;14.90;8.07;;;;;;;-2.11;64.14;99270.84;4901111;29;20046;-68
2022/11/16 21:33:23;;;;;;;13.63;7.43;;;;;;;-2.12;64.70;99264.78;4918051;28;20458;-70
2022/11/16 21:35:48;;;;;;;19.92;7.20;;;;;;;-2.14;64.78;99260.53;4918820;28;20051;-67
2022/11/16 21:38:13;;;;;;;12.95;7.75;;;;;;;-2.08;64.96;99266.41;4916237;29;20046;-69
2022/11/16 21:40:37;;;;;;;15.15;8.02;;;;;;;-2.08;64.79;99255.13;4916590;28;20837;-68
2022/11/16 21:43:02;;;;;;;14.00;8.27;;;;;;;-2.09;64.78;99253.41;4909344;28;20149;-68
2022/11/16 21:45:27;;;;;;;15.65;7.93;;;;;;;-2.09;64.54;99254.25;4912045;28;20039;-67
2022/11/16 21:47:51;;;;;;;13.63;7.65;;;;;;;-2.08;64.56;99242.91;4900939;29;20047;-69
2022/11/16 21:50:16;;;;;;;11.70;7.35;;;;;;;-2.06;64.52;99243.75;4916960;28;20102;-67
2022/11/16 21:52:41;;;;;;;13.57;6.47;;;;;;;-2.02;64.67;99253.19;4920301;28;20047;-67
2022/11/16 21:55:05;;;;;;;10.55;6.70;;;;;;;-1.96;64.74;99247.81;4920211;29;20051;-67
2022/11/16 21:57:30;;;;;;;20.23;8.63;;;;;;;-1.92;64.73;99246.81;4887785;28;20035;-67
2022/11/16 21:59:55;;;;;;;10.45;7.00;;;;;;;-1.86;64.68;99251.88;4902243;29;20055;-69
2022/11/16 22:02:20;;;;;;;13.10;7.63;;;;;;;-1.84;64.08;99255.31;4903382;29;20150;-67
2022/11/16 22:07:37;;;;;;;14.20;7.07;;;;;;;-1.76;64.40;99249.88;4907442;28;20070;-67
2022/11/16 22:10:10;;;;;;;11.88;6.80;;;;;;;-1.69;64.83;99247.94;4903493;29;20051;-67
2022/11/16 22:12:36;;;;;;;10.85;7.45;;;;;;;-1.68;64.81;99240.03;4920597;28;20071;-66
2022/11/16 22:15:01;;;;;;;15.98;7.05;;;;;;;-1.64;64.49;99252.13;4920213;28;20059;-68
2022/11/16 22:17:28;;;;;;;11.27;7.25;;;;;;;-1.61;64.69;99245.97;4887975;29;20565;-67
2022/11/16 22:19:53;;;;;;;12.50;7.00;;;;;;;-1.61;64.57;99245.97;4903334;29;20054;-65
2022/11/16 22:22:18;;;;;;;15.13;7.90;;;;;;;-1.59;64.41;99249.41;4864361;29;20476;-68
2022/11/16 22:24:43;;;;;;;11.93;6.75;;;;;;;-1.57;64.28;99255.41;4849051;29;20086;-66
2022/11/16 22:27:08;;;;;;;16.88;7.18;;;;;;;-1.55;64.38;99240.56;4880133;29;20071;-67
2022/11/16 22:29:35;;;;;;;12.85;7.80;;;;;;;-1.51;64.11;99235.19;4866663;29;20036;-67
2022/11/16 22:31:59;;;;;;;13.95;7.50;;;;;;;-1.48;64.18;99242.09;4879550;29;20143;-67
2022/11/16 22:34:24;;;;;;;11.98;7.05;;;;;;;-1.46;64.07;99241.13;4879678;29;20044;-67
2022/11/16 22:36:48;;;;;;;14.15;7.15;;;;;;;-1.44;63.63;99228.03;4863771;29;20605;-68
2022/11/16 22:39:13;;;;;;;14.27;7.72;;;;;;;-1.45;63.28;99226.31;4879496;29;20123;-66
2022/11/16 22:41:37;;;;;;;14.32;8.32;;;;;;;-1.49;63.12;99224.69;4876010;29;20044;-67
2022/11/16 22:44:02;;;;;;;18.27;8.68;;;;;;;-1.49;63.26;99227.31;4880107;29;20051;-68
2022/11/16 22:46:27;;;;;;;12.95;7.25;;;;;;;-1.50;62.88;99226.47;4863691;29;20779;-68
2022/11/16 22:48:51;;;;;;;15.98;6.45;;;;;;;-1.49;63.31;99224.69;4880054;29;20060;-67
2022/11/16 22:51:20;;;;;;;11.25;6.82;;;;;;;-1.52;63.35;99224.78;4848534;29;20103;-67
2022/11/16 22:53:45;;;;;;;14.77;7.50;;;;;;;-1.49;63.44;99219.47;4877856;29;20054;-67
2022/11/16 22:56:10;;;;;;;15.45;8.38;;;;;;;-1.50;63.24;99218.63;4886886;28;20497;-67
2022/11/16 22:58:37;;;;;;;11.05;7.15;;;;;;;-1.48;63.40;99218.56;4895915;29;20525;-67
2022/11/16 23:01:03;;;;;;;13.65;7.78;;;;;;;-1.47;63.60;99217.69;4913694;28;20102;-67
2022/11/16 23:03:28;;;;;;;15.32;7.80;;;;;;;-1.46;63.74;99220.22;4902778;29;20106;-68
2022/11/16 23:05:53;;;;;;;12.05;7.22;;;;;;;-1.46;63.37;99222.84;4921136;28;20046;-71